createdAt,value
2017-11-30T00:00:06.439Z,6.4
2017-11-30T00:00:47.017Z,6.38
2017-11-30T00:01:27.507Z,6.41
2017-11-30T00:02:08.047Z,6.48
2017-11-30T00:02:48.603Z,6.49
2017-11-30T00:03:29.140Z,6.55
2017-11-30T00:04:09.698Z,6.44
2017-11-30T00:04:50.247Z,6.43
2017-11-30T00:05:30.752Z,6.54
2017-11-30T00:06:11.335Z,6.49
2017-11-30T00:06:51.886Z,6.48
2017-11-30T00:07:32.420Z,6.4
2017-11-30T00:08:12.983Z,6.48
2017-11-30T00:08:53.504Z,6.4
2017-11-30T00:09:34.049Z,6.43
2017-11-30T00:10:14.609Z,6.56
2017-11-30T00:10:55.200Z,6.51
2017-11-30T00:11:35.729Z,6.49
2017-11-30T00:12:16.242Z,6.51
2017-11-30T00:12:56.766Z,6.49
2017-11-30T00:13:37.318Z,6.4
2017-11-30T00:14:17.829Z,6.51
2017-11-30T00:14:58.344Z,6.41
2017-11-30T00:15:38.905Z,6.49
2017-11-30T00:16:19.400Z,6.56
2017-11-30T00:17:00.042Z,6.48
2017-11-30T00:17:40.555Z,6.43
2017-11-30T00:18:21.105Z,6.37
2017-11-30T00:19:01.643Z,6.37
2017-11-30T00:19:42.132Z,6.38
2017-11-30T00:20:22.740Z,6.4
2017-11-30T00:21:03.283Z,6.49
2017-11-30T00:21:43.791Z,6.46
2017-11-30T00:22:24.403Z,6.51
2017-11-30T00:23:05.024Z,6.44
2017-11-30T00:23:46.759Z,6.44
2017-11-30T00:24:27.598Z,6.31
2017-11-30T00:25:08.128Z,6.43
2017-11-30T00:25:48.681Z,6.4
2017-11-30T00:26:29.287Z,6.4
2017-11-30T00:27:09.772Z,6.48
2017-11-30T00:27:51.177Z,6.48
2017-11-30T00:28:31.385Z,6.44
2017-11-30T00:29:12.003Z,6.43
2017-11-30T00:29:52.453Z,6.46
2017-11-30T00:30:33.253Z,6.46
2017-11-30T00:31:13.776Z,6.54
2017-11-30T00:31:54.272Z,6.52
2017-11-30T00:32:34.859Z,6.55
2017-11-30T00:33:15.635Z,6.51
2017-11-30T00:33:56.743Z,6.66
2017-11-30T00:34:37.790Z,6.67
2017-11-30T00:35:18.357Z,6.67
2017-11-30T00:35:58.968Z,6.44
2017-11-30T00:36:39.470Z,6.43
2017-11-30T00:37:20.019Z,6.54
2017-11-30T00:38:00.689Z,6.66
2017-11-30T00:38:42.176Z,6.62
2017-11-30T00:39:23.168Z,6.62
2017-11-30T00:40:03.695Z,6.52
2017-11-30T00:40:44.225Z,6.58
2017-11-30T00:41:24.721Z,6.46
2017-11-30T00:42:05.335Z,6.51
2017-11-30T00:42:46.121Z,6.44
2017-11-30T00:43:27.835Z,6.44
2017-11-30T00:44:08.321Z,6.4
2017-11-30T00:44:48.904Z,6.38
2017-11-30T00:45:29.424Z,6.44
2017-11-30T00:46:09.986Z,6.25
2017-11-30T00:46:50.518Z,6.33
2017-11-30T00:47:31.046Z,6.31
2017-11-30T00:48:12.284Z,6.41
2017-11-30T00:48:53.311Z,6.36
2017-11-30T00:49:33.859Z,6.38
2017-11-30T00:50:14.429Z,6.38
2017-11-30T00:50:54.928Z,6.28
2017-11-30T00:51:35.481Z,6.48
2017-11-30T00:52:16.058Z,6.3
2017-11-30T00:52:57.564Z,6.36
2017-11-30T00:53:38.175Z,6.34
2017-11-30T00:54:18.778Z,6.21
2017-11-30T00:54:59.397Z,6.34
2017-11-30T00:55:41.013Z,6.22
2017-11-30T00:56:22.221Z,6.25
2017-11-30T00:57:02.708Z,6.34
2017-11-30T00:57:43.574Z,6.33
2017-11-30T00:58:24.169Z,6.41
2017-11-30T00:59:04.690Z,6.4
2017-11-30T00:59:45.256Z,6.44
2017-11-30T01:00:25.774Z,6.37
2017-11-30T01:01:06.364Z,6.43
2017-11-30T01:01:46.875Z,6.41
2017-11-30T01:02:27.423Z,6.41
2017-11-30T01:03:07.946Z,6.4
2017-11-30T01:03:48.565Z,6.48
2017-11-30T01:04:29.097Z,6.54
2017-11-30T01:05:09.655Z,6.4
2017-11-30T01:05:50.212Z,6.44
2017-11-30T01:06:30.692Z,6.4
2017-11-30T01:07:11.275Z,6.49
2017-11-30T01:07:51.786Z,6.56
2017-11-30T01:08:32.485Z,6.61
2017-11-30T01:09:12.878Z,6.66
2017-11-30T01:09:53.405Z,6.59
2017-11-30T01:10:33.949Z,6.59
2017-11-30T01:11:14.498Z,6.58
2017-11-30T01:11:55.399Z,6.59
2017-11-30T01:12:35.971Z,6.55
2017-11-30T01:13:16.533Z,6.67
2017-11-30T01:13:57.085Z,6.71
2017-11-30T01:14:37.654Z,6.71
2017-11-30T01:15:18.218Z,6.66
2017-11-30T01:15:58.812Z,6.64
2017-11-30T01:16:39.696Z,6.61
2017-11-30T01:17:20.275Z,6.7
2017-11-30T01:18:00.973Z,6.55
2017-11-30T01:18:41.555Z,6.61
2017-11-30T01:19:22.130Z,6.52
2017-11-30T01:20:02.639Z,6.51
2017-11-30T01:20:43.178Z,6.51
2017-11-30T01:21:23.745Z,6.52
2017-11-30T01:22:04.228Z,6.61
2017-11-30T01:22:44.811Z,6.62
2017-11-30T01:23:25.625Z,6.62
2017-11-30T01:24:06.164Z,6.56
2017-11-30T01:24:46.667Z,6.67
2017-11-30T01:25:27.246Z,6.67
2017-11-30T01:26:07.816Z,6.52
2017-11-30T01:26:48.272Z,6.55
2017-11-30T01:27:28.820Z,6.52
2017-11-30T01:28:09.368Z,6.52
2017-11-30T01:28:49.924Z,6.48
2017-11-30T01:29:30.529Z,6.33
2017-11-30T01:30:11.069Z,6.49
2017-11-30T01:30:51.578Z,6.44
2017-11-30T01:31:32.172Z,6.46
2017-11-30T01:32:12.660Z,6.49
2017-11-30T01:32:53.146Z,6.61
2017-11-30T01:33:33.691Z,6.49
2017-11-30T01:34:14.195Z,6.54
2017-11-30T01:34:54.744Z,6.59
2017-11-30T01:35:35.256Z,6.55
2017-11-30T01:36:15.789Z,6.58
2017-11-30T01:36:56.308Z,6.49
2017-11-30T01:37:36.825Z,6.56
2017-11-30T01:38:17.344Z,6.67
2017-11-30T01:38:58.156Z,6.54
2017-11-30T01:39:38.657Z,6.4
2017-11-30T01:40:19.365Z,6.46
2017-11-30T01:40:59.847Z,6.58
2017-11-30T01:41:40.429Z,6.44
2017-11-30T01:42:20.949Z,6.46
2017-11-30T01:43:01.532Z,6.43
2017-11-30T01:43:42.004Z,6.48
2017-11-30T01:44:22.606Z,6.59
2017-11-30T01:45:03.082Z,6.58
2017-11-30T01:45:43.633Z,6.61
2017-11-30T01:46:24.183Z,6.49
2017-11-30T01:47:04.692Z,6.49
2017-11-30T01:47:45.218Z,6.59
2017-11-30T01:48:25.757Z,6.61
2017-11-30T01:49:06.305Z,6.59
2017-11-30T01:49:46.871Z,6.54
2017-11-30T01:50:27.407Z,6.56
2017-11-30T01:51:07.972Z,6.59
2017-11-30T01:51:48.564Z,6.56
2017-11-30T01:52:29.109Z,6.59
2017-11-30T01:53:09.662Z,6.49
2017-11-30T01:53:50.214Z,6.61
2017-11-30T01:54:30.743Z,6.58
2017-11-30T01:55:11.321Z,6.51
2017-11-30T01:55:51.855Z,6.52
2017-11-30T01:56:32.434Z,6.55
2017-11-30T01:57:13.000Z,6.51
2017-11-30T01:57:53.787Z,6.64
2017-11-30T01:58:34.164Z,6.51
2017-11-30T01:59:14.702Z,6.49
2017-11-30T01:59:55.223Z,6.4
2017-11-30T02:00:35.769Z,6.49
2017-11-30T02:01:16.276Z,6.43
2017-11-30T02:01:56.841Z,6.38
2017-11-30T02:02:37.373Z,6.48
2017-11-30T02:03:17.880Z,6.51
2017-11-30T02:03:58.543Z,6.59
2017-11-30T02:04:39.140Z,6.56
2017-11-30T02:05:19.699Z,6.48
2017-11-30T02:06:00.257Z,6.46
2017-11-30T02:06:40.806Z,6.44
2017-11-30T02:07:21.287Z,6.43
2017-11-30T02:08:01.811Z,6.28
2017-11-30T02:08:42.868Z,6.31
2017-11-30T02:09:23.625Z,6.48
2017-11-30T02:10:04.190Z,6.44
2017-11-30T02:10:44.734Z,6.38
2017-11-30T02:11:25.282Z,6.51
2017-11-30T02:12:05.824Z,6.55
2017-11-30T02:12:46.369Z,6.49
2017-11-30T02:13:26.911Z,6.4
2017-11-30T02:14:07.451Z,6.48
2017-11-30T02:14:48.020Z,6.46
2017-11-30T02:15:28.500Z,6.44
2017-11-30T02:16:09.046Z,6.4
2017-11-30T02:16:49.708Z,6.4
2017-11-30T02:17:30.318Z,6.54
2017-11-30T02:18:11.310Z,6.52
2017-11-30T02:18:51.831Z,6.62
2017-11-30T02:19:32.351Z,6.54
2017-11-30T02:20:12.933Z,6.49
2017-11-30T02:20:53.489Z,6.54
2017-11-30T02:21:33.946Z,6.52
2017-11-30T02:22:14.491Z,6.48
2017-11-30T02:22:55.025Z,6.4
2017-11-30T02:23:35.524Z,6.46
2017-11-30T02:24:16.076Z,6.49
2017-11-30T02:24:56.631Z,6.49
2017-11-30T02:25:37.150Z,6.46
2017-11-30T02:26:17.703Z,6.52
2017-11-30T02:26:58.255Z,6.46
2017-11-30T02:27:38.818Z,6.44
2017-11-30T02:28:19.338Z,6.46
2017-11-30T02:28:59.879Z,6.44
2017-11-30T02:29:40.445Z,6.46
2017-11-30T02:30:20.965Z,6.3
2017-11-30T02:31:01.522Z,6.17
2017-11-30T02:31:42.033Z,6.25
2017-11-30T02:32:22.568Z,6.3
2017-11-30T02:33:03.199Z,6.25
2017-11-30T02:33:43.666Z,6.28
2017-11-30T02:34:24.269Z,6.34
2017-11-30T02:35:04.764Z,6.31
2017-11-30T02:35:45.436Z,6.28
2017-11-30T02:36:25.912Z,6.11
2017-11-30T02:37:06.428Z,6.14
2017-11-30T02:37:47.035Z,6.17
2017-11-30T02:38:27.609Z,6.15
2017-11-30T02:39:08.102Z,6.03
2017-11-30T02:39:48.639Z,6.12
2017-11-30T02:40:29.202Z,6.17
2017-11-30T02:41:09.729Z,6.17
2017-11-30T02:41:50.282Z,5.99
2017-11-30T02:42:30.876Z,6.11
2017-11-30T02:43:11.496Z,6.17
2017-11-30T02:43:52.068Z,6.09
2017-11-30T02:44:32.550Z,6
2017-11-30T02:45:13.108Z,5.85
2017-11-30T02:45:53.625Z,5.89
2017-11-30T02:46:34.137Z,5.93
2017-11-30T02:47:14.680Z,5.82
2017-11-30T02:47:55.190Z,5.89
2017-11-30T02:48:35.764Z,5.72
2017-11-30T02:49:16.349Z,5.78
2017-11-30T02:49:56.885Z,5.71
2017-11-30T02:50:37.422Z,5.68
2017-11-30T02:51:17.955Z,5.71
2017-11-30T02:51:58.536Z,5.74
2017-11-30T02:52:39.049Z,5.86
2017-11-30T02:53:19.572Z,5.85
2017-11-30T02:54:00.169Z,5.81
2017-11-30T02:54:40.709Z,5.71
2017-11-30T02:55:21.202Z,5.86
2017-11-30T02:56:01.799Z,5.79
2017-11-30T02:56:42.332Z,5.61
2017-11-30T02:57:22.906Z,5.63
2017-11-30T02:58:03.452Z,5.85
2017-11-30T02:58:44.201Z,5.71
2017-11-30T02:59:24.759Z,5.74
2017-11-30T03:00:05.273Z,5.76
2017-11-30T03:00:45.877Z,5.82
2017-11-30T03:01:26.471Z,5.83
2017-11-30T03:02:07.100Z,5.83
2017-11-30T03:02:47.692Z,5.83
2017-11-30T03:03:28.167Z,5.94
2017-11-30T03:04:08.687Z,6
2017-11-30T03:04:49.223Z,6
2017-11-30T03:05:29.774Z,6.04
2017-11-30T03:06:10.316Z,6
2017-11-30T03:06:50.822Z,5.97
2017-11-30T03:07:31.403Z,6.01
2017-11-30T03:08:11.932Z,6.03
2017-11-30T03:08:52.422Z,5.96
2017-11-30T03:09:33.773Z,5.99
2017-11-30T03:10:14.402Z,6.03
2017-11-30T03:10:54.837Z,5.97
2017-11-30T03:11:35.357Z,5.99
2017-11-30T03:12:15.979Z,5.91
2017-11-30T03:12:56.466Z,5.83
2017-11-30T03:13:37.049Z,6
2017-11-30T03:14:17.836Z,5.93
2017-11-30T03:14:58.388Z,5.85
2017-11-30T03:15:38.877Z,5.82
2017-11-30T03:16:19.541Z,5.9
2017-11-30T03:17:00.064Z,5.83
2017-11-30T03:17:40.645Z,5.83
2017-11-30T03:18:21.198Z,5.86
2017-11-30T03:19:01.616Z,5.81
2017-11-30T03:19:42.189Z,5.9
2017-11-30T03:20:22.717Z,5.86
2017-11-30T03:21:03.259Z,5.96
2017-11-30T03:21:43.783Z,5.82
2017-11-30T03:22:26.098Z,5.83
2017-11-30T03:23:06.655Z,5.75
2017-11-30T03:23:47.245Z,5.81
2017-11-30T03:24:27.823Z,5.83
2017-11-30T03:25:08.377Z,5.93
2017-11-30T03:25:48.873Z,5.97
2017-11-30T03:26:29.522Z,5.86
2017-11-30T03:27:10.034Z,6.03
2017-11-30T03:27:50.585Z,5.94
2017-11-30T03:28:31.147Z,5.96
2017-11-30T03:29:11.717Z,5.91
2017-11-30T03:29:52.318Z,6.04
2017-11-30T03:30:32.947Z,6.14
2017-11-30T03:31:13.537Z,6.15
2017-11-30T03:31:54.004Z,6.18
2017-11-30T03:32:34.546Z,6.17
2017-11-30T03:33:15.028Z,6.09
2017-11-30T03:33:55.626Z,6.04
2017-11-30T03:34:36.176Z,5.94
2017-11-30T03:35:16.685Z,6.03
2017-11-30T03:35:57.235Z,5.9
2017-11-30T03:36:37.859Z,5.86
2017-11-30T03:37:18.340Z,5.83
2017-11-30T03:37:58.851Z,5.74
2017-11-30T03:38:39.377Z,5.74
2017-11-30T03:39:19.953Z,5.74
2017-11-30T03:40:00.478Z,5.81
2017-11-30T03:40:41.065Z,5.72
2017-11-30T03:41:21.613Z,5.71
2017-11-30T03:42:02.157Z,5.83
2017-11-30T03:42:42.611Z,5.86
2017-11-30T03:43:23.240Z,5.85
2017-11-30T03:44:03.809Z,5.86
2017-11-30T03:44:44.394Z,5.99
2017-11-30T03:45:24.975Z,6.03
2017-11-30T03:46:05.472Z,6.08
2017-11-30T03:46:46.008Z,6.06
2017-11-30T03:47:26.530Z,6.04
2017-11-30T03:48:07.048Z,6.22
2017-11-30T03:48:47.595Z,6.17
2017-11-30T03:49:28.114Z,6.25
2017-11-30T03:50:08.667Z,6.3
2017-11-30T03:50:49.355Z,6.28
2017-11-30T03:51:31.221Z,6.38
2017-11-30T03:52:11.758Z,6.27
2017-11-30T03:52:52.286Z,6.28
2017-11-30T03:53:32.797Z,6.27
2017-11-30T03:54:13.333Z,6.15
2017-11-30T03:54:55.098Z,6.19
2017-11-30T03:55:35.523Z,6.14
2017-11-30T03:56:15.982Z,6.06
2017-11-30T03:56:56.554Z,6.09
2017-11-30T03:57:37.077Z,6.17
2017-11-30T03:58:17.617Z,6.15
2017-11-30T03:58:58.152Z,6.17
2017-11-30T03:59:38.802Z,6.15
2017-11-30T04:00:19.223Z,6.14
2017-11-30T04:00:59.785Z,6.18
2017-11-30T04:01:43.265Z,6.21
2017-11-30T04:02:23.715Z,6.18
2017-11-30T04:03:04.344Z,6.12
2017-11-30T04:03:46.391Z,6.11
2017-11-30T04:04:26.611Z,6.22
2017-11-30T04:05:07.131Z,6.21
2017-11-30T04:05:47.652Z,6.3
2017-11-30T04:06:28.196Z,6.28
2017-11-30T04:07:08.774Z,6.22
2017-11-30T04:07:49.441Z,6.18
2017-11-30T04:08:31.743Z,6.22
2017-11-30T04:09:12.267Z,6.21
2017-11-30T04:09:52.819Z,6.22
2017-11-30T04:10:33.349Z,6.11
2017-11-30T04:11:13.877Z,6.09
2017-11-30T04:11:54.456Z,5.99
2017-11-30T04:12:36.625Z,5.99
2017-11-30T04:13:17.115Z,5.99
2017-11-30T04:13:57.640Z,5.96
2017-11-30T04:14:38.145Z,5.94
2017-11-30T04:15:18.644Z,6.14
2017-11-30T04:15:59.205Z,6.09
2017-11-30T04:16:39.759Z,6.15
2017-11-30T04:17:21.789Z,6.09
2017-11-30T04:18:02.316Z,6.14
2017-11-30T04:18:42.841Z,6.17
2017-11-30T04:19:23.635Z,6.09
2017-11-30T04:20:04.142Z,6.18
2017-11-30T04:20:44.685Z,6.17
2017-11-30T04:21:25.254Z,6.18
2017-11-30T04:22:05.804Z,6.08
2017-11-30T04:22:46.346Z,6.18
2017-11-30T04:23:26.852Z,6.06
2017-11-30T04:24:07.855Z,6.06
2017-11-30T04:24:48.410Z,5.99
2017-11-30T04:25:28.940Z,5.93
2017-11-30T04:26:09.474Z,6.06
2017-11-30T04:26:51.512Z,5.83
2017-11-30T04:27:31.226Z,5.91
2017-11-30T04:28:12.050Z,6
2017-11-30T04:28:52.649Z,5.81
2017-11-30T04:29:33.184Z,5.93
2017-11-30T04:30:13.755Z,5.97
2017-11-30T04:30:54.231Z,5.89
2017-11-30T04:31:34.815Z,5.79
2017-11-30T04:32:15.539Z,5.79
2017-11-30T04:32:57.030Z,5.85
2017-11-30T04:33:37.621Z,5.78
2017-11-30T04:34:18.181Z,5.81
2017-11-30T04:34:58.739Z,5.81
2017-11-30T04:35:39.293Z,5.86
2017-11-30T04:36:19.880Z,5.75
2017-11-30T04:37:01.224Z,5.64
2017-11-30T04:37:42.220Z,5.64
2017-11-30T04:38:22.253Z,5.68
2017-11-30T04:39:02.700Z,5.49
2017-11-30T04:39:43.332Z,5.61
2017-11-30T04:40:23.863Z,5.45
2017-11-30T04:41:04.400Z,5.4
2017-11-30T04:41:44.971Z,5.56
2017-11-30T04:42:25.662Z,5.49
2017-11-30T04:43:07.363Z,5.53
2017-11-30T04:43:47.952Z,5.61
2017-11-30T04:44:28.505Z,5.65
2017-11-30T04:45:09.001Z,5.74
2017-11-30T04:45:49.533Z,5.81
2017-11-30T04:46:30.062Z,5.76
2017-11-30T04:47:11.819Z,5.89
2017-11-30T04:47:51.392Z,5.97
2017-11-30T04:48:31.897Z,5.94
2017-11-30T04:49:12.490Z,5.94
2017-11-30T04:49:53.015Z,5.91
2017-11-30T04:50:33.521Z,5.96
2017-11-30T04:52:33.328Z,6.03
2017-11-30T04:53:13.857Z,6.12
2017-11-30T04:53:54.493Z,6.12
2017-11-30T04:54:34.938Z,6.18
2017-11-30T04:55:15.497Z,6.11
2017-11-30T04:55:56.010Z,6.18
2017-11-30T04:56:36.570Z,6.21
2017-11-30T04:57:17.064Z,6.21
2017-11-30T04:57:57.618Z,6.14
2017-11-30T04:58:38.154Z,6.17
2017-11-30T04:59:18.685Z,6.27
2017-11-30T04:59:59.815Z,6.27
2017-11-30T05:00:40.556Z,6.25
2017-11-30T05:01:21.079Z,6.18
2017-11-30T05:02:01.702Z,6.21
2017-11-30T05:02:42.210Z,6.17
2017-11-30T05:03:22.760Z,6.06
2017-11-30T05:04:04.021Z,6.08
2017-11-30T05:04:44.634Z,5.96
2017-11-30T05:05:25.146Z,5.86
2017-11-30T05:06:06.218Z,5.86
2017-11-30T05:06:47.732Z,5.86
2017-11-30T05:07:28.289Z,5.94
2017-11-30T05:08:08.815Z,5.82
2017-11-30T05:08:50.537Z,5.83
2017-11-30T05:09:32.108Z,5.86
2017-11-30T05:10:12.111Z,5.83
2017-11-30T05:10:52.652Z,5.82
2017-11-30T05:11:33.179Z,5.89
2017-11-30T05:12:14.246Z,5.85
2017-11-30T05:12:54.762Z,5.83
2017-11-30T05:13:35.301Z,5.94
2017-11-30T05:14:15.829Z,5.97
2017-11-30T05:14:56.830Z,5.96
2017-11-30T05:15:38.976Z,5.89
2017-11-30T05:16:20.559Z,5.83
2017-11-30T05:17:01.913Z,5.81
2017-11-30T05:17:42.544Z,5.79
2017-11-30T05:18:23.639Z,5.74
2017-11-30T05:19:04.190Z,5.67
2017-11-30T05:19:44.711Z,5.72
2017-11-30T05:20:25.281Z,5.68
2017-11-30T05:21:05.816Z,5.75
2017-11-30T05:21:46.578Z,5.79
2017-11-30T05:22:27.076Z,5.68
2017-11-30T05:23:07.848Z,5.78
2017-11-30T05:23:48.606Z,5.86
2017-11-30T05:24:28.905Z,5.82
2017-11-30T05:25:09.388Z,5.97
2017-11-30T05:25:50.969Z,5.86
2017-11-30T05:26:31.313Z,5.81
2017-11-30T05:27:12.577Z,5.91
2017-11-30T05:27:54.087Z,5.9
2017-11-30T05:28:33.711Z,5.91
2017-11-30T05:29:14.302Z,5.85
2017-11-30T05:29:55.395Z,5.74
2017-11-30T05:30:35.964Z,5.85
2017-11-30T05:31:16.929Z,5.89
2017-11-30T05:31:57.485Z,5.78
2017-11-30T05:32:38.584Z,5.79
2017-11-30T05:33:19.087Z,5.65
2017-11-30T05:33:59.595Z,5.63
2017-11-30T05:34:40.094Z,5.76
2017-11-30T05:35:20.636Z,5.9
2017-11-30T05:36:01.197Z,5.76
2017-11-30T05:36:41.741Z,5.83
2017-11-30T05:37:22.704Z,5.89
2017-11-30T05:38:03.238Z,5.81
2017-11-30T05:38:43.844Z,5.86
2017-11-30T05:39:24.720Z,5.85
2017-11-30T05:40:05.252Z,5.85
2017-11-30T05:40:46.012Z,5.85
2017-11-30T05:41:26.349Z,5.79
2017-11-30T05:42:06.938Z,5.79
2017-11-30T05:42:47.457Z,5.9
2017-11-30T05:43:28.035Z,5.93
2017-11-30T05:44:08.602Z,5.99
2017-11-30T05:44:49.118Z,5.94
2017-11-30T05:45:29.698Z,5.99
2017-11-30T05:46:10.281Z,5.96
2017-11-30T05:46:50.830Z,6.11
2017-11-30T05:47:31.403Z,6.08
2017-11-30T05:48:11.860Z,5.93
2017-11-30T05:48:52.408Z,6.01
2017-11-30T05:49:33.192Z,5.97
2017-11-30T05:50:13.842Z,6.17
2017-11-30T05:50:54.386Z,6.25
2017-11-30T05:51:35.905Z,6.04
2017-11-30T05:52:16.471Z,6.08
2017-11-30T05:52:57.659Z,6.11
2017-11-30T05:53:38.201Z,6.01
2017-11-30T05:54:19.091Z,6
2017-11-30T05:54:59.604Z,5.99
2017-11-30T05:55:40.216Z,6.08
2017-11-30T05:56:20.819Z,6.18
2017-11-30T05:57:01.306Z,6.11
2017-11-30T05:57:41.852Z,6.19
2017-11-30T05:58:22.355Z,6.21
2017-11-30T05:59:03.001Z,6.21
2017-11-30T05:59:43.629Z,6.21
2017-11-30T06:00:24.232Z,6.22
2017-11-30T06:01:04.843Z,6.22
2017-11-30T06:01:45.434Z,6.21
2017-11-30T06:02:25.989Z,6.19
2017-11-30T06:03:06.553Z,6.19
2017-11-30T06:03:47.051Z,6.06
2017-11-30T06:04:27.694Z,6.12
2017-11-30T06:05:08.241Z,6.04
2017-11-30T06:05:48.772Z,5.96
2017-11-30T06:06:29.288Z,5.97
2017-11-30T06:07:09.925Z,6.04
2017-11-30T06:07:50.672Z,6.08
2017-11-30T06:08:31.063Z,6.18
2017-11-30T06:09:11.637Z,6.17
2017-11-30T06:09:52.186Z,6.18
2017-11-30T06:10:32.714Z,5.97
2017-11-30T06:11:13.248Z,5.99
2017-11-30T06:11:53.744Z,5.99
2017-11-30T06:12:34.358Z,6.04
2017-11-30T06:13:14.880Z,5.99
2017-11-30T06:13:55.857Z,5.99
2017-11-30T06:14:36.361Z,5.96
2017-11-30T06:15:16.876Z,5.96
2017-11-30T06:15:57.435Z,5.81
2017-11-30T06:16:38.015Z,5.89
2017-11-30T06:17:18.533Z,5.83
2017-11-30T06:17:59.237Z,5.91
2017-11-30T06:18:39.754Z,5.94
2017-11-30T06:19:20.293Z,6.08
2017-11-30T06:20:00.782Z,6.12
2017-11-30T06:20:41.320Z,6.11
2017-11-30T06:21:21.864Z,6.03
2017-11-30T06:22:02.404Z,6.03
2017-11-30T06:22:42.997Z,6.04
2017-11-30T06:23:23.509Z,5.99
2017-11-30T06:24:04.066Z,5.94
2017-11-30T06:24:44.534Z,5.96
2017-11-30T06:25:25.132Z,5.96
2017-11-30T06:26:05.688Z,6
2017-11-30T06:26:46.355Z,5.91
2017-11-30T06:27:26.763Z,5.89
2017-11-30T06:28:07.261Z,5.86
2017-11-30T06:28:47.767Z,5.93
2017-11-30T06:29:28.303Z,5.96
2017-11-30T06:30:08.907Z,6.01
2017-11-30T06:30:49.440Z,5.96
2017-11-30T06:31:29.985Z,5.91
2017-11-30T06:32:10.461Z,5.91
2017-11-30T06:32:51.044Z,5.86
2017-11-30T06:33:31.591Z,5.89
2017-11-30T06:34:12.301Z,5.85
2017-11-30T06:34:53.476Z,5.91
2017-11-30T06:35:34.177Z,6.03
2017-11-30T06:36:14.662Z,5.99
2017-11-30T06:36:55.215Z,5.94
2017-11-30T06:37:35.731Z,6.06
2017-11-30T06:38:16.277Z,5.89
2017-11-30T06:38:56.789Z,6
2017-11-30T06:39:37.329Z,6.09
2017-11-30T06:40:18.176Z,6.08
2017-11-30T06:40:59.381Z,6.12
2017-11-30T06:41:39.933Z,6.15
2017-11-30T06:42:20.534Z,6.11
2017-11-30T06:43:01.035Z,6.19
2017-11-30T06:43:41.567Z,6.12
2017-11-30T06:44:22.118Z,6.17
2017-11-30T06:45:02.799Z,6.21
2017-11-30T06:45:43.310Z,6.21
2017-11-30T06:46:23.863Z,6.14
2017-11-30T06:47:04.710Z,6.11
2017-11-30T06:47:45.944Z,6.17
2017-11-30T06:48:26.481Z,6.17
2017-11-30T06:49:07.525Z,6.19
2017-11-30T06:49:48.057Z,6.18
2017-11-30T06:50:28.733Z,6.22
2017-11-30T06:51:10.495Z,6.19
2017-11-30T06:51:51.133Z,6.18
2017-11-30T06:52:31.790Z,6.14
2017-11-30T06:53:12.452Z,6.14
2017-11-30T06:53:52.925Z,6.14
2017-11-30T06:54:33.477Z,6.03
2017-11-30T06:55:15.597Z,6.03
2017-11-30T06:55:56.070Z,6.12
2017-11-30T06:56:36.772Z,5.96
2017-11-30T06:57:17.187Z,6.03
2017-11-30T06:57:57.867Z,5.89
2017-11-30T06:58:38.374Z,6.04
2017-11-30T06:59:19.141Z,6.03
2017-11-30T06:59:59.665Z,6.12
2017-11-30T07:00:40.538Z,5.93
2017-11-30T07:01:21.742Z,5.96
2017-11-30T07:02:01.672Z,5.93
2017-11-30T07:02:42.016Z,6.01
2017-11-30T07:03:22.581Z,5.97
2017-11-30T07:04:03.107Z,6.04
2017-11-30T07:04:43.644Z,6.12
2017-11-30T07:05:24.210Z,6.06
2017-11-30T07:06:04.809Z,6.06
2017-11-30T07:06:53.275Z,6.08
2017-11-30T07:07:33.764Z,6.12
2017-11-30T07:08:14.298Z,6.11
2017-11-30T07:08:54.929Z,6.15
2017-11-30T07:09:35.513Z,6.21
2017-11-30T07:10:16.560Z,5.97
2017-11-30T07:10:57.434Z,6.01
2017-11-30T07:11:38.089Z,6
2017-11-30T07:12:18.627Z,6.06
2017-11-30T07:12:59.417Z,6.06
2017-11-30T07:13:40.543Z,5.99
2017-11-30T07:14:20.760Z,5.91
2017-11-30T07:15:01.270Z,5.93
2017-11-30T07:15:42.371Z,5.89
2017-11-30T07:16:23.052Z,5.97
2017-11-30T07:17:03.594Z,5.94
2017-11-30T07:17:44.129Z,6
2017-11-30T07:18:24.697Z,5.94
2017-11-30T07:19:05.625Z,6.09
2017-11-30T07:19:46.890Z,6.06
2017-11-30T07:20:27.422Z,6.01
2017-11-30T07:21:08.107Z,5.96
2017-11-30T07:21:48.601Z,6.11
2017-11-30T07:22:29.151Z,6.08
2017-11-30T07:23:09.696Z,6.11
2017-11-30T07:23:50.422Z,5.97
2017-11-30T07:24:32.045Z,6
2017-11-30T07:25:12.791Z,5.96
2017-11-30T07:25:53.721Z,5.94
2017-11-30T07:26:34.399Z,5.96
2017-11-30T07:27:14.959Z,6.04
2017-11-30T07:27:55.524Z,6.11
2017-11-30T07:28:36.175Z,6.14
2017-11-30T07:29:17.730Z,6.18
2017-11-30T07:29:58.368Z,6.25
2017-11-30T07:30:39.577Z,6.18
2017-11-30T07:31:20.122Z,6.25
2017-11-30T07:32:01.139Z,6.15
2017-11-30T07:32:41.381Z,6.17
2017-11-30T07:33:21.916Z,6.18
2017-11-30T07:34:02.486Z,6.22
2017-11-30T07:34:42.979Z,6.22
2017-11-30T07:35:23.493Z,6.17
2017-11-30T07:36:04.023Z,6.28
2017-11-30T07:36:44.515Z,6.27
2017-11-30T07:37:26.525Z,6.19
2017-11-30T07:38:07.400Z,6.18
2017-11-30T07:38:47.933Z,6.19
2017-11-30T07:39:28.467Z,6.09
2017-11-30T07:40:08.962Z,6.09
2017-11-30T07:40:49.569Z,6.03
2017-11-30T07:41:30.053Z,6.08
2017-11-30T07:42:10.755Z,5.93
2017-11-30T07:42:51.737Z,5.97
2017-11-30T07:43:32.200Z,5.99
2017-11-30T07:44:12.708Z,6.01
2017-11-30T07:44:53.264Z,6.11
2017-11-30T07:45:33.808Z,6.06
2017-11-30T07:46:14.363Z,6.01
2017-11-30T07:46:54.947Z,6.09
2017-11-30T07:47:35.439Z,6.14
2017-11-30T07:48:16.159Z,6.15
2017-11-30T07:48:56.691Z,6.09
2017-11-30T07:49:40.723Z,6.11
2017-11-30T07:50:21.381Z,6.11
2017-11-30T07:51:02.229Z,6.06
2017-11-30T07:51:42.723Z,6.09
2017-11-30T07:52:23.270Z,5.96
2017-11-30T07:53:03.854Z,6.06
2017-11-30T07:53:44.412Z,6.12
2017-11-30T07:54:24.895Z,6.22
2017-11-30T07:55:05.504Z,6.25
2017-11-30T07:55:46.427Z,5.96
2017-11-30T07:56:27.084Z,5.86
2017-11-30T07:57:07.675Z,5.9
2017-11-30T07:57:48.182Z,5.97
2017-11-30T07:58:28.777Z,5.99
2017-11-30T07:59:09.352Z,5.96
2017-11-30T07:59:49.915Z,5.97
2017-11-30T08:00:30.422Z,6.01
2017-11-30T08:01:11.220Z,6.01
2017-11-30T08:01:51.794Z,6.14
2017-11-30T08:02:32.492Z,6.04
2017-11-30T08:03:13.035Z,6.12
2017-11-30T08:03:53.596Z,6.08
2017-11-30T08:04:34.566Z,6.06
2017-11-30T08:05:15.103Z,6.09
2017-11-30T08:05:55.667Z,6.17
2017-11-30T08:06:36.392Z,6.18
2017-11-30T08:07:16.928Z,6.18
2017-11-30T08:07:57.502Z,6.21
2017-11-30T08:08:38.013Z,6.12
2017-11-30T08:09:18.557Z,6.25
2017-11-30T08:09:59.150Z,6.22
2017-11-30T08:10:39.687Z,6.22
2017-11-30T08:11:20.232Z,6.18
2017-11-30T08:12:00.735Z,6.19
2017-11-30T08:12:41.318Z,6.27
2017-11-30T08:13:21.867Z,6.25
2017-11-30T08:14:02.364Z,6.17
2017-11-30T08:14:42.932Z,6.11
2017-11-30T08:15:23.420Z,6.12
2017-11-30T08:16:04.000Z,6.11
2017-11-30T08:16:44.488Z,6.06
2017-11-30T08:17:25.038Z,6.12
2017-11-30T08:18:05.621Z,6.09
2017-11-30T08:18:46.081Z,6
2017-11-30T08:19:26.735Z,5.99
2017-11-30T08:20:07.246Z,5.99
2017-11-30T08:20:47.890Z,6.09
2017-11-30T08:21:28.359Z,6.03
2017-11-30T08:22:08.857Z,6.03
2017-11-30T08:22:49.486Z,6.06
2017-11-30T08:23:30.002Z,6.06
2017-11-30T08:24:10.518Z,5.91
2017-11-30T08:24:51.152Z,5.96
2017-11-30T08:25:31.609Z,5.89
2017-11-30T08:26:12.140Z,5.89
2017-11-30T08:26:52.674Z,5.82
2017-11-30T08:27:33.500Z,5.9
2017-11-30T08:28:14.459Z,5.96
2017-11-30T08:28:54.979Z,5.93
2017-11-30T08:29:35.495Z,5.97
2017-11-30T08:30:16.077Z,6.03
2017-11-30T08:30:56.591Z,6.03
2017-11-30T08:31:37.103Z,5.96
2017-11-30T08:32:17.652Z,6.01
2017-11-30T08:32:58.200Z,6.11
2017-11-30T08:33:38.919Z,6.19
2017-11-30T08:34:19.491Z,6.21
2017-11-30T08:35:00.011Z,6.22
2017-11-30T08:35:40.510Z,6.19
2017-11-30T08:36:21.078Z,6.09
2017-11-30T08:37:01.661Z,6.18
2017-11-30T08:37:42.329Z,6.04
2017-11-30T08:38:23.015Z,6.15
2017-11-30T08:39:03.550Z,6.14
2017-11-30T08:39:44.131Z,6.04
2017-11-30T08:40:24.650Z,6.08
2017-11-30T08:41:05.236Z,6.08
2017-11-30T08:41:45.771Z,6.09
2017-11-30T08:42:26.366Z,6.03
2017-11-30T08:43:07.007Z,6.14
2017-11-30T08:43:47.595Z,6.22
2017-11-30T08:44:28.101Z,6.12
2017-11-30T08:45:08.596Z,6.17
2017-11-30T08:45:49.170Z,6.22
2017-11-30T08:46:29.730Z,6.28
2017-11-30T08:47:10.278Z,6.34
2017-11-30T08:47:50.831Z,6.27
2017-11-30T08:48:31.337Z,6.38
2017-11-30T08:49:12.053Z,6.3
2017-11-30T08:49:52.611Z,6.37
2017-11-30T08:50:33.110Z,6.36
2017-11-30T08:51:13.907Z,6.25
2017-11-30T08:51:54.449Z,6.33
2017-11-30T08:52:35.002Z,6.36
2017-11-30T08:53:15.534Z,6.44
2017-11-30T08:53:56.117Z,6.41
2017-11-30T08:54:36.678Z,6.43
2017-11-30T08:55:17.257Z,6.36
2017-11-30T08:55:57.790Z,6.37
2017-11-30T08:56:38.366Z,6.38
2017-11-30T08:57:18.879Z,6.4
2017-11-30T08:57:59.431Z,6.46
2017-11-30T08:58:40.171Z,6.34
2017-11-30T08:59:20.690Z,6.41
2017-11-30T09:00:01.880Z,6.36
2017-11-30T09:00:42.558Z,6.43
2017-11-30T09:01:22.989Z,6.44
2017-11-30T09:02:03.466Z,6.52
2017-11-30T09:02:44.035Z,6.4
2017-11-30T09:03:24.658Z,6.34